createdAt,value
2022-11-16T00:04:42.326Z,90.72
2022-11-16T00:09:48.710Z,90.83
2022-11-16T00:14:56.232Z,90.81
2022-11-16T00:20:02.336Z,90.76
2022-11-16T00:25:10.435Z,90.65
2022-11-16T00:30:18.905Z,90.48
2022-11-16T00:35:25.111Z,90.53
2022-11-16T00:40:31.717Z,90.44
2022-11-16T00:45:40.067Z,90.64
2022-11-16T00:50:47.924Z,90.47
2022-11-16T00:55:54.805Z,90.68
2022-11-16T01:01:08.601Z,90.84
2022-11-16T01:06:17.129Z,90.36
2022-11-16T01:11:40.313Z,90.33
2022-11-16T01:16:50.656Z,90.31
2022-11-16T01:21:57.283Z,90.45
2022-11-16T01:27:03.616Z,90.31
2022-11-16T01:32:14.806Z,90.34
2022-11-16T01:37:22.225Z,90.11
2022-11-16T01:42:33.871Z,90.18
2022-11-16T01:47:43.559Z,90.17
2022-11-16T01:53:01.306Z,89.99
2022-11-16T01:58:19.474Z,89.97
2022-11-16T02:03:30.797Z,90.15
2022-11-16T02:09:12.234Z,90.31
2022-11-16T02:14:46.378Z,90.15
2022-11-16T02:20:30.888Z,90.15
2022-11-16T02:25:49.581Z,89.85
2022-11-16T02:30:59.810Z,90.21
2022-11-16T02:36:10.674Z,89.86
2022-11-16T02:41:23.216Z,89.95
2022-11-16T02:46:37.720Z,90.04
2022-11-16T02:51:48.842Z,89.98
2022-11-16T02:56:57.556Z,90.24
2022-11-16T03:02:19.712Z,90.06
2022-11-16T03:07:33.967Z,90.05
2022-11-16T03:12:42.663Z,89.98
2022-11-16T03:17:52.218Z,89.99
2022-11-16T03:23:03.896Z,89.83
2022-11-16T03:28:15.321Z,89.74
2022-11-16T03:33:29.320Z,89.81
2022-11-16T03:38:40.030Z,89.76
2022-11-16T03:43:50.055Z,89.63
2022-11-16T03:49:03.563Z,89.72
2022-11-16T03:54:15.437Z,89.71
2022-11-16T03:59:22.858Z,89.48
2022-11-16T04:04:47.460Z,89.75
2022-11-16T04:10:11.480Z,89.88
2022-11-16T04:15:37.017Z,89.61
2022-11-16T04:21:04.447Z,90.63
2022-11-16T04:26:13.582Z,89.77
2022-11-16T04:31:38.002Z,90.21
2022-11-16T04:37:07.433Z,90.29
2022-11-16T04:42:19.402Z,90.33
2022-11-16T04:47:28.642Z,90.32
2022-11-16T04:52:36.199Z,90.24
2022-11-16T04:57:45.123Z,90.74
2022-11-16T05:03:00.821Z,90.99
2022-11-16T05:08:09.860Z,91.66
2022-11-16T05:13:17.423Z,91.74
2022-11-16T05:18:24.261Z,91.71
2022-11-16T05:23:49.596Z,91.97
2022-11-16T05:29:00.804Z,91.88
2022-11-16T05:34:07.835Z,91.54
2022-11-16T05:39:15.925Z,91.74
2022-11-16T05:44:22.638Z,91.64
2022-11-16T05:49:29.665Z,91.54
2022-11-16T05:54:40.011Z,91.80
2022-11-16T05:59:46.494Z,91.33
2022-11-16T06:04:53.466Z,91.35
2022-11-16T06:10:02.178Z,91.28
2022-11-16T06:15:11.411Z,91.09
2022-11-16T06:20:18.337Z,90.77
2022-11-16T06:25:27.342Z,90.61
2022-11-16T06:30:34.168Z,90.67
2022-11-16T06:35:41.918Z,90.72
2022-11-16T06:40:52.891Z,90.25
2022-11-16T06:46:00.441Z,90.46
2022-11-16T06:51:07.347Z,90.32
2022-11-16T06:56:17.681Z,90.34
2022-11-16T07:01:30.162Z,90.35
2022-11-16T07:06:42.669Z,90.45
2022-11-16T07:11:50.459Z,89.98
2022-11-16T07:17:01.040Z,90.05
2022-11-16T07:22:08.424Z,90.18
2022-11-16T07:27:16.631Z,90.18
2022-11-16T07:32:27.399Z,90.83
2022-11-16T07:37:58.896Z,90.96
2022-11-16T07:43:06.468Z,90.97
2022-11-16T07:48:34.287Z,91.62
2022-11-16T07:53:57.079Z,91.43
2022-11-16T07:59:06.374Z,91.54
2022-11-16T08:04:17.821Z,91.16
2022-11-16T08:09:24.080Z,91.09
2022-11-16T08:14:33.327Z,91.08
2022-11-16T08:19:42.558Z,91.27
2022-11-16T08:24:52.370Z,91.07
2022-11-16T08:30:00.267Z,90.75
2022-11-16T08:35:07.412Z,90.64
2022-11-16T08:40:14.855Z,89.88
2022-11-16T08:45:23.517Z,89.74
2022-11-16T08:50:31.400Z,89.62
2022-11-16T08:55:39.755Z,89.46
2022-11-16T09:00:47.909Z,89.63
2022-11-16T09:05:54.564Z,89.38
2022-11-16T09:11:01.051Z,89.16
2022-11-16T09:16:09.974Z,88.62
2022-11-16T09:21:21.069Z,88.00
2022-11-16T09:26:27.972Z,88.12
2022-11-16T09:31:37.775Z,86.93
2022-11-16T09:36:43.889Z,87.10
2022-11-16T09:42:06.960Z,86.91
2022-11-16T09:47:22.061Z,86.38
2022-11-16T09:52:36.110Z,86.23
2022-11-16T09:57:42.672Z,86.65
2022-11-16T10:02:59.583Z,86.11
2022-11-16T10:08:15.383Z,85.84
2022-11-16T10:13:39.190Z,85.25
2022-11-16T10:18:57.061Z,85.43
2022-11-16T10:24:34.442Z,84.75
2022-11-16T10:29:58.121Z,84.33
2022-11-16T10:35:14.664Z,84.62
2022-11-16T10:40:25.731Z,84.87
2022-11-16T10:45:41.293Z,84.46
2022-11-16T10:50:51.785Z,84.34
2022-11-16T10:56:18.017Z,84.43
2022-11-16T11:01:33.631Z,84.85
2022-11-16T11:06:41.682Z,84.81
2022-11-16T11:12:19.166Z,84.61
2022-11-16T11:17:25.431Z,85.00
2022-11-16T11:22:34.910Z,85.46
2022-11-16T11:27:41.367Z,85.70
2022-11-16T11:32:48.153Z,85.98
2022-11-16T11:38:04.793Z,85.31
2022-11-16T11:43:25.553Z,85.38
2022-11-16T11:48:42.913Z,85.39
2022-11-16T11:53:57.109Z,85.55
2022-11-16T11:59:04.847Z,85.67
2022-11-16T12:04:51.912Z,85.60
2022-11-16T12:10:10.237Z,85.57
2022-11-16T12:15:46.991Z,86.25
2022-11-16T12:21:07.256Z,87.06
2022-11-16T12:26:25.296Z,87.25
2022-11-16T12:31:58.046Z,86.47
2022-11-16T12:37:12.494Z,86.89
2022-11-16T12:42:36.407Z,86.98
2022-11-16T12:48:13.660Z,86.92
2022-11-16T12:53:59.899Z,86.43
2022-11-16T12:59:32.666Z,85.73
2022-11-16T13:04:43.596Z,85.52
2022-11-16T13:09:55.878Z,84.68
2022-11-16T13:15:06.564Z,84.63
2022-11-16T13:20:34.883Z,84.16
2022-11-16T13:25:47.263Z,84.11
2022-11-16T13:31:06.648Z,84.61
2022-11-16T13:36:45.689Z,84.20
2022-11-16T13:42:06.650Z,84.28
2022-11-16T13:47:26.342Z,84.25
2022-11-16T13:53:36.363Z,84.35
2022-11-16T13:58:21.705Z,84.51
2022-11-16T14:03:38.994Z,84.43
2022-11-16T14:08:53.604Z,83.82
2022-11-16T14:14:02.430Z,83.79
2022-11-16T14:19:55.387Z,83.84
2022-11-16T14:25:11.191Z,84.17
2022-11-16T14:30:24.399Z,83.68
2022-11-16T14:35:37.031Z,84.26
2022-11-16T14:40:48.465Z,83.74
2022-11-16T14:45:58.452Z,83.35
2022-11-16T14:51:12.303Z,83.16
2022-11-16T14:56:21.036Z,83.11
2022-11-16T15:01:30.733Z,83.32
2022-11-16T15:06:45.594Z,83.46
2022-11-16T15:12:10.947Z,83.32
2022-11-16T15:17:20.985Z,83.24
2022-11-16T15:22:30.734Z,83.53
2022-11-16T15:27:40.724Z,83.67
2022-11-16T15:32:50.059Z,83.36
2022-11-16T15:38:15.366Z,83.52
2022-11-16T15:43:25.776Z,83.47
2022-11-16T15:48:33.690Z,83.61
2022-11-16T15:53:44.198Z,83.93
2022-11-16T15:58:51.169Z,84.35
2022-11-16T16:04:00.859Z,84.33
2022-11-16T16:09:21.642Z,84.52
2022-11-16T16:14:31.425Z,84.54
2022-11-16T16:19:43.141Z,84.09
2022-11-16T16:24:51.264Z,84.32
2022-11-16T16:30:00.667Z,84.23
2022-11-16T16:35:18.962Z,84.51
2022-11-16T16:40:27.905Z,84.67
2022-11-16T16:45:39.261Z,84.92
2022-11-16T16:50:45.878Z,85.02
2022-11-16T16:55:54.777Z,84.99
2022-11-16T17:01:05.310Z,85.39
2022-11-16T17:06:13.034Z,85.39
2022-11-16T17:11:21.354Z,84.95
2022-11-16T17:16:29.082Z,85.03
2022-11-16T17:21:37.740Z,85.04
2022-11-16T17:26:48.920Z,84.89
2022-11-16T17:31:57.693Z,84.97
2022-11-16T17:37:04.829Z,85.01
2022-11-16T17:42:13.057Z,84.81
2022-11-16T17:47:21.991Z,84.74
2022-11-16T17:52:29.939Z,84.58
2022-11-16T17:57:39.177Z,84.59
2022-11-16T18:02:47.265Z,84.34
2022-11-16T18:07:54.299Z,84.22
2022-11-16T18:13:02.669Z,83.98
2022-11-16T18:18:10.405Z,83.52
2022-11-16T18:23:17.339Z,83.67
2022-11-16T18:28:27.214Z,83.57
2022-11-16T18:33:35.365Z,83.36
2022-11-16T18:38:43.561Z,83.13
2022-11-16T18:43:55.201Z,82.98
2022-11-16T18:49:04.246Z,82.63
2022-11-16T18:54:12.081Z,82.91
2022-11-16T18:59:21.578Z,82.61
2022-11-16T19:04:29.462Z,83.02
2022-11-16T19:09:36.757Z,82.97
2022-11-16T19:14:46.531Z,84.41
2022-11-16T19:19:53.835Z,84.81
2022-11-16T19:25:05.834Z,85.21
2022-11-16T19:30:21.659Z,84.79
2022-11-16T19:35:29.169Z,84.49
2022-11-16T19:40:39.909Z,84.00
2022-11-16T19:45:49.351Z,83.83
2022-11-16T19:50:57.084Z,84.22
2022-11-16T19:56:05.077Z,83.00
2022-11-16T20:01:17.815Z,82.82
2022-11-16T20:06:30.948Z,82.56
2022-11-16T20:11:40.631Z,82.17
2022-11-16T20:16:52.061Z,81.77
2022-11-16T20:22:00.656Z,81.99
2022-11-16T20:27:09.294Z,81.88
2022-11-16T20:32:18.847Z,81.94
2022-11-16T20:37:26.783Z,81.69
2022-11-16T20:42:34.425Z,81.38
2022-11-16T20:47:42.935Z,81.41
2022-11-16T20:52:52.900Z,80.89
2022-11-16T20:58:00.195Z,81.39
2022-11-16T21:03:08.839Z,81.17
2022-11-16T21:08:16.485Z,81.16
2022-11-16T21:13:39.800Z,81.42
2022-11-16T21:18:50.650Z,81.15
2022-11-16T21:23:57.311Z,81.10
2022-11-16T21:29:04.187Z,81.26
2022-11-16T21:34:12.389Z,80.94
2022-11-16T21:39:19.185Z,81.11
2022-11-16T21:44:25.695Z,81.06
2022-11-16T21:49:33.379Z,80.80
2022-11-16T21:54:49.070Z,81.13
2022-11-16T21:59:55.908Z,80.90
2022-11-16T22:05:20.967Z,80.72
2022-11-16T22:10:27.237Z,80.87
2022-11-16T22:15:33.564Z,81.22
2022-11-16T22:20:41.586Z,81.27
2022-11-16T22:25:47.816Z,81.28
2022-11-16T22:31:02.914Z,81.21
2022-11-16T22:36:13.612Z,81.51
2022-11-16T22:41:20.440Z,81.41
2022-11-16T22:46:26.873Z,81.30
2022-11-16T22:51:35.436Z,80.97
2022-11-16T22:56:41.880Z,81.20
2022-11-16T23:01:48.033Z,81.30
2022-11-16T23:06:55.524Z,81.34
2022-11-16T23:12:18.833Z,81.16
2022-11-16T23:17:24.983Z,80.89
2022-11-16T23:22:49.626Z,80.93
2022-11-16T23:28:01.885Z,80.75
2022-11-16T23:33:08.825Z,80.82
2022-11-16T23:38:16.903Z,80.75
2022-11-16T23:43:40.814Z,80.82
2022-11-16T23:48:47.035Z,80.80
2022-11-16T23:53:56.175Z,80.70
2022-11-16T23:59:01.978Z,80.46
